ADDS METAR Data INFO
IDs: Format: Raw Decoded Include TAF

Data at: 2133 UTC 15 Dec 2017

KW31 152115Z AUTO 29003KT 10SM CLR 01/M06 A2992 RMK AO1 T00121057
KW31 152055Z AUTO 27003KT 10SM CLR 02/M06 A2992 RMK AO1 T00151060
KW31 152035Z AUTO 27004KT 10SM CLR 01/M06 A2992 RMK AO1 T00131060
KW31 152015Z AUTO 27003KT 10SM CLR 01/M06 A2993 RMK AO1 T00101061
KW31 151955Z AUTO 00000KT 10SM SCT025 01/M06 A2992 RMK AO1 T00101063
KW31 151935Z AUTO 00000KT 10SM OVC025 01/M06 A2992 RMK AO1 T00111063
KW31 151915Z AUTO 34006KT 10SM OVC025 01/M06 A2992 RMK AO1 T00071065
KW31 151855Z AUTO 00000KT 10SM OVC023 01/M06 A2992 RMK AO1 T00111060
KW31 151835Z AUTO 32004KT 10SM OVC023 01/M06 A2991 RMK AO1 T00101061
KW31 151815Z AUTO 33005KT 10SM OVC023 01/M06 A2992 RMK AO1 T00071062
KW31 151755Z AUTO 30003KT 10SM OVC023 01/M06 A2992 RMK AO1 T00081063 10009 21012
KW31 151735Z AUTO 35003KT 10SM OVC023 01/M06 A2993 RMK AO1 T00061065
KW31 151715Z AUTO 00000KT 10SM OVC023 01/M06 A2994 RMK AO1 T00061064
KW31 151655Z AUTO 35004KT 10SM OVC021 01/M07 A2996 RMK AO1 T00061066
KW31 151635Z AUTO 35003KT 10SM OVC021 01/M07 A2997 RMK AO1 T00061066
KW31 151615Z AUTO 00000KT 10SM OVC021 01/M07 A2998 RMK AO1 T00051067
KW31 151555Z AUTO 35005KT 10SM OVC021 00/M07 A2999 RMK AO1 T00021069
KW31 151535Z AUTO 03004KT 10SM OVC019 00/M07 A2999 RMK AO1 T00031069
KW31 151515Z AUTO 02003KT 10SM OVC019 00/M07 A3000 RMK AO1 T00001070
KW31 151455Z AUTO 01004KT 10SM OVC023 00/M07 A3001 RMK AO1 T00001067
KW31 151435Z AUTO 00000KT 10SM OVC023 00/M06 A3001 RMK AO1 T10011065
KW31 151415Z AUTO 02005KT 10SM OVC023 00/M07 A3001 RMK AO1 T10051066
KW31 151355Z AUTO 04003KT 10SM OVC023 00/M07 A3000 RMK AO1 T10051066
KW31 151335Z AUTO 04005KT 10SM OVC025 M01/M07 A2999 RMK AO1 T10071067
KW31 151320Z AUTO 00000KT 10SM OVC025 M01/M07 A3000 RMK AO1 T10081067
KW31 151255Z AUTO 02003KT 10SM OVC025 M01/M07 A3002 RMK AO1 T10101067
KW31 151235Z AUTO 00000KT 10SM OVC025 M01/M07 A3002 RMK AO1 T10101068
KW31 151215Z AUTO 03004KT 10SM OVC025 M01/M07 A3002 RMK AO1 T10111070
KW31 151155Z AUTO 04006KT 10SM OVC025 M01/M07 A3002 RMK AO1 T10121071 10000 21020
KW31 151135Z AUTO 04005KT 10SM OVC025 M01/M07 A3002 RMK AO1 T10131073
KW31 151115Z AUTO 03005KT 10SM OVC025 M01/M07 A3003 RMK AO1 T10131073
KW31 151055Z AUTO 01003KT 10SM OVC025 M01/M07 A3004 RMK AO1 T10151075
KW31 151035Z AUTO 02004KT 10SM BKN025 M02/M07 A3004 RMK AO1 T10171073
KW31 151015Z AUTO 03004KT 10SM CLR M02/M07 A3003 RMK AO1 T10201073
KW31 150955Z AUTO 03005KT 10SM CLR M02/M07 A3004 RMK AO1 T10181073
KW31 150935Z AUTO 02005KT 10SM CLR M02/M07 A3004 RMK AO1 T10171071
KW31 150915Z AUTO 02003KT 10SM SCT070 M02/M07 A3005 RMK AO1 T10171070
KW31 150855Z AUTO 03004KT 10SM SCT070 M02/M07 A3006 RMK AO1 T10161070
KW31 150835Z AUTO 03003KT 10SM CLR M01/M07 A3005 RMK AO1 T10151068
KW31 150815Z AUTO 03004KT 10SM CLR M01/M07 A3005 RMK AO1 T10131068
KW31 150755Z AUTO 03004KT 10SM CLR M01/M07 A3005 RMK AO1 T10111068
KW31 150735Z AUTO 03004KT 10SM CLR M01/M07 A3005 RMK AO1 T10101066
KW31 150715Z AUTO 04003KT 10SM CLR M01/M06 A3004 RMK AO1 T10091065
KW31 150655Z AUTO 03004KT 10SM CLR 00/M06 A3005 RMK AO1 T10051065
KW31 150635Z AUTO 04003KT 10SM SCT070 00/M06 A3005 RMK AO1 T10021065
KW31 150615Z AUTO 00000KT 10SM SCT070 00/M06 A3005 RMK AO1 T00001065
KW31 150555Z AUTO 00000KT 10SM CLR 00/M06 A3006 RMK AO1 T00001062 10061 20000
KW31 150535Z AUTO 00000KT 10SM CLR 00/M06 A3007 RMK AO1 T00031060
KW31 150515Z AUTO 00000KT 10SM CLR 01/M06 A3007 RMK AO1 T00061060
KW31 150455Z AUTO 00000KT 10SM CLR 01/M06 A3006 RMK AO1 T00101060 401100008
KW31 150435Z AUTO 06003KT 10SM CLR 01/M06 A3005 RMK AO1 T00131059
KW31 150415Z AUTO 05004KT 10SM CLR 02/M06 A3005 RMK AO1 T00171056
KW31 150355Z AUTO 07003KT 10SM CLR 02/M05 A3005 RMK AO1 T00201052
KW31 150335Z AUTO 08003KT 10SM CLR 02/M05 A3004 RMK AO1 T00201052
KW31 150315Z AUTO 00000KT 10SM CLR 02/M05 A3004 RMK AO1 T00241050
KW31 150255Z AUTO 00000KT 10SM CLR 03/M05 A3004 RMK AO1 T00271046
KW31 150235Z AUTO 00000KT 10SM CLR 03/M04 A3004 RMK AO1 T00311043
KW31 150215Z AUTO 00000KT 10SM CLR 04/M04 A3003 RMK AO1 T00351045
KW31 150155Z AUTO 00000KT 10SM CLR 04/M04 A3003 RMK AO1 T00391043
KW31 150140Z AUTO 04004KT 10SM CLR 04/M04 A3002 RMK AO1 T00431044
KW31 150115Z AUTO 04004KT 10SM CLR 05/M05 A3001 RMK AO1 T00511050
KW31 150055Z AUTO 02003KT 10SM CLR 05/M05 A3000 RMK AO1 T00521049
KW31 150035Z AUTO 00000KT 10SM CLR 05/M05 A2999 RMK AO1 T00521047
KW31 150015Z AUTO 01004KT 10SM CLR 06/M05 A2998 RMK AO1 T00571049
KW31 142355Z AUTO 00000KT 10SM CLR 06/M05 A2998 RMK AO1 T00571047 10110 20057
KW31 142335Z AUTO 36003KT 10SM CLR 06/M05 A2997 RMK AO1 T00601046
KW31 142315Z AUTO 33004KT 10SM CLR 06/M04 A2995 RMK AO1 T00621045
KW31 142255Z AUTO 35004KT 10SM CLR 07/M04 A2994 RMK AO1 T00681044
KW31 142235Z AUTO 36003KT 10SM CLR 07/M04 A2993 RMK AO1 T00671041
KW31 142215Z AUTO 33005KT 10SM CLR 08/M04 A2992 RMK AO1 T00751041
KW31 142155Z AUTO 33005KT 10SM CLR 08/M04 A2991 RMK AO1 T00811042
KW31 142135Z AUTO 31004KT 10SM CLR 09/M03 A2989 RMK AO1 T00851035
KW31 142115Z AUTO 00000KT 10SM CLR 09/M04 A2988 RMK AO1 T00881039
KW31 142055Z AUTO 00000KT 10SM CLR 09/M03 A2987 RMK AO1 T00921035
KW31 142035Z AUTO 28003KT 10SM CLR 09/M04 A2986 RMK AO1 T00921036
KW31 142015Z AUTO 31005KT 10SM CLR 10/M04 A2985 RMK AO1 T01031037
KW31 141955Z AUTO 31005KT 10SM CLR 10/M03 A2984 RMK AO1 T01041031
KW31 141935Z AUTO 33009KT 10SM SCT060 10/M03 A2984 RMK AO1 T01031029
KW31 141915Z AUTO 00000KT 10SM SCT060 11/M03 A2984 RMK AO1 T01061028
KW31 141855Z AUTO 30005KT 10SM SCT055 11/M03 A2983 RMK AO1 T01051033
KW31 141835Z AUTO 32005KT 10SM SCT055 11/M03 A2983 RMK AO1 T01081029
KW31 141815Z AUTO 29003KT 10SM CLR 10/M03 A2983 RMK AO1 T01031031
KW31 141755Z AUTO 29005KT 10SM CLR 11/M03 A2982 RMK AO1 T01071028 10109 20008
KW31 141735Z AUTO 27004KT 10SM CLR 10/M03 A2982 RMK AO1 T01021033
KW31 141715Z AUTO 32006KT 10SM CLR 10/M03 A2982 RMK AO1 T01011030
KW31 141655Z AUTO 33012G17KT 10SM CLR 10/M03 A2981 RMK AO1 T00981031
KW31 141635Z AUTO 00000KT 10SM CLR 10/M03 A2980 RMK AO1 T00971033
KW31 141615Z AUTO 32009G15KT 10SM CLR 10/M03 A2980 RMK AO1 T00951035
KW31 141555Z AUTO 26004KT 10SM CLR 09/M04 A2980 RMK AO1 T00921036
KW31 141535Z AUTO 25005KT 10SM CLR 09/M04 A2979 RMK AO1 T00871038
KW31 141515Z AUTO 28005KT 10SM CLR 08/M04 A2978 RMK AO1 T00791040
KW31 141455Z AUTO 27004KT 10SM CLR 06/M05 A2977 RMK AO1 T00631051
KW31 141435Z AUTO 25004KT 10SM CLR 05/M06 A2975 RMK AO1 T00481057
KW31 141415Z AUTO 24004KT 10SM CLR 04/M06 A2975 RMK AO1 T00401060
KW31 141355Z AUTO 25003KT 10SM CLR 03/M06 A2973 RMK AO1 T00321064
KW31 141335Z AUTO 24004KT 10SM CLR 02/M07 A2972 RMK AO1 T00231067
KW31 141315Z AUTO 23006KT 10SM CLR 02/M07 A2971 RMK AO1 T00171070
KW31 141255Z AUTO 22007KT 10SM CLR 01/M07 A2970 RMK AO1 T00111072
KW31 141235Z AUTO 23005KT 10SM CLR 01/M07 A2969 RMK AO1 T00111073
KW31 141215Z AUTO 23005KT 10SM CLR 01/M07 A2968 RMK AO1 T00101074
KW31 141155Z AUTO 24003KT 10SM CLR 01/M07 A2968 RMK AO1 T00101075 10021 20008
KW31 141135Z AUTO 23003KT 10SM CLR 01/M07 A2967 RMK AO1 T00101075
KW31 141115Z AUTO 23004KT 10SM CLR 01/M07 A2966 RMK AO1 T00111075
KW31 141055Z AUTO 24004KT 10SM CLR 01/M08 A2965 RMK AO1 T00121076
KW31 141035Z AUTO 23005KT 10SM CLR 01/M08 A2964 RMK AO1 T00131076
KW31 141015Z AUTO 22005KT 10SM CLR 02/M08 A2962 RMK AO1 T00151077
KW31 140955Z AUTO 22005KT 10SM CLR 02/M08 A2962 RMK AO1 T00151076
KW31 140935Z AUTO 22006KT 10SM CLR 01/M08 A2961 RMK AO1 T00131076